sensor_id;sensor_type;location;lat;lon;timestamp;pressure;altitude;pressure_sealevel;temperature;humidity
65756;BME280;52489;47.502;18.940;2022-11-14T00:00:06;99260.50;;;6.01;94.12
65756;BME280;52489;47.502;18.940;2022-11-14T00:01:11;99255.78;;;5.86;95.84
65756;BME280;52489;47.502;18.940;2022-11-14T00:02:14;99254.84;;;5.92;95.42
65756;BME280;52489;47.502;18.940;2022-11-14T00:03:18;99256.84;;;6.02;94.96
65756;BME280;52489;47.502;18.940;2022-11-14T00:04:21;99251.69;;;6.19;93.30
65756;BME280;52489;47.502;18.940;2022-11-14T00:05:30;99250.88;;;6.02;93.24
65756;BME280;52489;47.502;18.940;2022-11-14T00:06:34;99247.31;;;6.08;93.32
65756;BME280;52489;47.502;18.940;2022-11-14T00:07:37;99251.84;;;6.12;92.74
65756;BME280;52489;47.502;18.940;2022-11-14T00:08:43;99248.59;;;6.05;92.55
65756;BME280;52489;47.502;18.940;2022-11-14T00:09:46;99237.66;;;5.91;93.00
65756;BME280;52489;47.502;18.940;2022-11-14T00:10:50;99241.72;;;5.99;92.82
65756;BME280;52489;47.502;18.940;2022-11-14T00:11:54;99241.34;;;5.79;93.44
65756;BME280;52489;47.502;18.940;2022-11-14T00:13:00;99241.44;;;5.84;93.64
65756;BME280;52489;47.502;18.940;2022-11-14T00:14:05;99240.47;;;5.73;94.59
65756;BME280;52489;47.502;18.940;2022-11-14T00:15:08;99238.59;;;5.85;93.53
65756;BME280;52489;47.502;18.940;2022-11-14T00:16:11;99235.03;;;5.75;94.68
65756;BME280;52489;47.502;18.940;2022-11-14T00:17:15;99238.50;;;5.80;94.26
65756;BME280;52489;47.502;18.940;2022-11-14T00:18:19;99239.94;;;5.88;93.28
65756;BME280;52489;47.502;18.940;2022-11-14T00:19:22;99238.03;;;5.95;92.21
65756;BME280;52489;47.502;18.940;2022-11-14T00:20:25;99241.06;;;5.92;91.94
65756;BME280;52489;47.502;18.940;2022-11-14T00:21:28;99241.66;;;5.82;92.51
65756;BME280;52489;47.502;18.940;2022-11-14T00:22:32;99235.50;;;5.72;93.70
65756;BME280;52489;47.502;18.940;2022-11-14T00:23:35;99241.38;;;5.67;94.39
65756;BME280;52489;47.502;18.940;2022-11-14T00:24:38;99237.22;;;5.66;95.25
65756;BME280;52489;47.502;18.940;2022-11-14T00:25:43;99238.87;;;5.72;96.38
65756;BME280;52489;47.502;18.940;2022-11-14T00:26:46;99241.50;;;5.72;95.84
65756;BME280;52489;47.502;18.940;2022-11-14T00:27:49;99244.66;;;5.74;95.03
65756;BME280;52489;47.502;18.940;2022-11-14T00:28:55;99242.12;;;5.79;94.07
65756;BME280;52489;47.502;18.940;2022-11-14T00:29:58;99239.53;;;5.79;93.66
65756;BME280;52489;47.502;18.940;2022-11-14T00:31:01;99240.25;;;5.75;94.04
65756;BME280;52489;47.502;18.940;2022-11-14T00:32:05;99241.59;;;5.77;94.21
65756;BME280;52489;47.502;18.940;2022-11-14T00:33:07;99240.94;;;5.70;94.19
65756;BME280;52489;47.502;18.940;2022-11-14T00:34:10;99241.06;;;5.63;96.52
65756;BME280;52489;47.502;18.940;2022-11-14T00:35:13;99239.56;;;5.67;97.06
65756;BME280;52489;47.502;18.940;2022-11-14T00:36:16;99239.25;;;5.64;97.06
65756;BME280;52489;47.502;18.940;2022-11-14T00:37:19;99249.03;;;5.74;95.80
65756;BME280;52489;47.502;18.940;2022-11-14T00:38:22;99242.47;;;5.83;94.67
65756;BME280;52489;47.502;18.940;2022-11-14T00:39:25;99241.75;;;5.59;95.76
65756;BME280;52489;47.502;18.940;2022-11-14T00:40:29;99243.03;;;5.56;96.12
65756;BME280;52489;47.502;18.940;2022-11-14T00:41:32;99237.91;;;5.61;95.48
65756;BME280;52489;47.502;18.940;2022-11-14T00:42:35;99241.75;;;5.59;95.65
65756;BME280;52489;47.502;18.940;2022-11-14T00:43:39;99239.50;;;5.62;95.46
65756;BME280;52489;47.502;18.940;2022-11-14T00:44:45;99244.75;;;5.51;95.38
65756;BME280;52489;47.502;18.940;2022-11-14T00:45:48;99231.09;;;5.43;95.91
65756;BME280;52489;47.502;18.940;2022-11-14T00:46:51;99230.31;;;5.43;96.12
65756;BME280;52489;47.502;18.940;2022-11-14T00:47:57;99228.31;;;5.33;96.12
65756;BME280;52489;47.502;18.940;2022-11-14T00:49:01;99231.03;;;5.27;96.86
65756;BME280;52489;47.502;18.940;2022-11-14T00:50:04;99242.53;;;5.31;97.05
65756;BME280;52489;47.502;18.940;2022-11-14T00:51:08;99240.50;;;5.33;97.05
65756;BME280;52489;47.502;18.940;2022-11-14T00:52:10;99243.41;;;5.48;96.86
65756;BME280;52489;47.502;18.940;2022-11-14T00:53:13;99242.47;;;5.54;96.23
65756;BME280;52489;47.502;18.940;2022-11-14T00:54:16;99240.47;;;5.73;95.26
65756;BME280;52489;47.502;18.940;2022-11-14T00:55:19;99235.34;;;5.78;94.07
65756;BME280;52489;47.502;18.940;2022-11-14T00:56:22;99239.22;;;5.76;93.95
65756;BME280;52489;47.502;18.940;2022-11-14T00:57:25;99234.25;;;5.74;94.08
65756;BME280;52489;47.502;18.940;2022-11-14T00:58:28;99231.81;;;5.84;92.81
65756;BME280;52489;47.502;18.940;2022-11-14T00:59:31;99229.78;;;5.86;92.41
65756;BME280;52489;47.502;18.940;2022-11-14T01:00:34;99239.91;;;5.71;92.91
65756;BME280;52489;47.502;18.940;2022-11-14T01:01:37;99239.72;;;5.61;93.05
65756;BME280;52489;47.502;18.940;2022-11-14T01:02:40;99232.59;;;5.68;92.07
65756;BME280;52489;47.502;18.940;2022-11-14T01:03:47;99236.03;;;5.74;92.12
65756;BME280;52489;47.502;18.940;2022-11-14T01:04:51;99234.25;;;5.74;92.46
65756;BME280;52489;47.502;18.940;2022-11-14T01:05:54;99235.88;;;5.63;92.50
65756;BME280;52489;47.502;18.940;2022-11-14T01:06:57;99236.03;;;5.57;92.56
65756;BME280;52489;47.502;18.940;2022-11-14T01:07:59;99237.22;;;5.66;91.80
65756;BME280;52489;47.502;18.940;2022-11-14T01:09:03;99229.66;;;5.64;91.96
65756;BME280;52489;47.502;18.940;2022-11-14T01:10:06;99233.84;;;5.65;91.95
65756;BME280;52489;47.502;18.940;2022-11-14T01:11:20;99233.84;;;5.65;91.49
65756;BME280;52489;47.502;18.940;2022-11-14T01:12:23;99225.09;;;5.72;91.22
65756;BME280;52489;47.502;18.940;2022-11-14T01:13:30;99230.34;;;5.60;91.18
65756;BME280;52489;47.502;18.940;2022-11-14T01:14:38;99227.09;;;5.53;91.66
65756;BME280;52489;47.502;18.940;2022-11-14T01:15:47;99224.50;;;5.53;91.51
65756;BME280;52489;47.502;18.940;2022-11-14T01:16:50;99224.22;;;5.66;91.30
65756;BME280;52489;47.502;18.940;2022-11-14T01:17:53;99218.59;;;5.57;91.66
65756;BME280;52489;47.502;18.940;2022-11-14T01:18:56;99222.47;;;5.55;91.95
65756;BME280;52489;47.502;18.940;2022-11-14T01:19:59;99216.37;;;5.49;92.35
65756;BME280;52489;47.502;18.940;2022-11-14T01:21:06;99213.88;;;5.54;92.73
65756;BME280;52489;47.502;18.940;2022-11-14T01:22:10;99210.84;;;5.45;93.10
65756;BME280;52489;47.502;18.940;2022-11-14T01:23:15;99208.06;;;5.35;93.74
65756;BME280;52489;47.502;18.940;2022-11-14T01:24:18;99208.97;;;5.29;94.20
65756;BME280;52489;47.502;18.940;2022-11-14T01:25:21;99208.06;;;5.35;94.75
65756;BME280;52489;47.502;18.940;2022-11-14T01:26:24;99201.19;;;5.29;94.86
65756;BME280;52489;47.502;18.940;2022-11-14T01:27:30;99204.19;;;5.21;95.40
65756;BME280;52489;47.502;18.940;2022-11-14T01:28:34;99209.34;;;5.33;95.13
65756;BME280;52489;47.502;18.940;2022-11-14T01:29:40;99207.41;;;5.28;96.97
65756;BME280;52489;47.502;18.940;2022-11-14T01:30:44;99212.31;;;5.53;99.26
65756;BME280;52489;47.502;18.940;2022-11-14T01:31:47;99203.91;;;5.63;99.24
65756;BME280;52489;47.502;18.940;2022-11-14T01:32:50;99199.16;;;5.60;99.55
65756;BME280;52489;47.502;18.940;2022-11-14T01:33:53;99206.41;;;5.58;100.00
65756;BME280;52489;47.502;18.940;2022-11-14T01:34:56;99220.59;;;5.67;100.00
65756;BME280;52489;47.502;18.940;2022-11-14T01:35:59;99207.06;;;5.82;100.00
65756;BME280;52489;47.502;18.940;2022-11-14T01:37:02;99212.09;;;5.88;100.00
65756;BME280;52489;47.502;18.940;2022-11-14T01:38:05;99205.66;;;5.91;100.00
65756;BME280;52489;47.502;18.940;2022-11-14T01:39:08;99205.25;;;5.82;99.74
65756;BME280;52489;47.502;18.940;2022-11-14T01:40:15;99205.25;;;5.82;99.60
65756;BME280;52489;47.502;18.940;2022-11-14T01:41:18;99206.19;;;5.76;99.22
65756;BME280;52489;47.502;18.940;2022-11-14T01:42:21;99208.31;;;5.79;99.14
65756;BME280;52489;47.502;18.940;2022-11-14T01:43:34;99207.22;;;5.75;97.53
65756;BME280;52489;47.502;18.940;2022-11-14T01:46:03;99206.72;;;5.61;97.22
65756;BME280;52489;47.502;18.940;2022-11-14T01:47:07;99198.06;;;5.73;97.24
65756;BME280;52489;47.502;18.940;2022-11-14T01:49:42;99205.59;;;5.86;96.49
65756;BME280;52489;47.502;18.940;2022-11-14T01:50:52;99200.72;;;5.89;95.92
65756;BME280;52489;47.502;18.940;2022-11-14T01:52:01;99200.66;;;5.73;96.11
65756;BME280;52489;47.502;18.940;2022-11-14T01:53:05;99199.56;;;5.85;95.80
65756;BME280;52489;47.502;18.940;2022-11-14T01:54:17;99196.34;;;5.78;95.75
65756;BME280;52489;47.502;18.940;2022-11-14T01:55:22;99193.66;;;5.73;95.10
65756;BME280;52489;47.502;18.940;2022-11-14T01:56:32;99188.16;;;5.69;95.84
65756;BME280;52489;47.502;18.940;2022-11-14T01:57:40;99196.72;;;5.70;96.05
65756;BME280;52489;47.502;18.940;2022-11-14T01:58:48;99188.62;;;5.66;95.95
65756;BME280;52489;47.502;18.940;2022-11-14T01:59:54;99186.56;;;5.68;95.40
65756;BME280;52489;47.502;18.940;2022-11-14T02:00:59;99188.78;;;5.60;96.02
65756;BME280;52489;47.502;18.940;2022-11-14T02:02:17;99186.63;;;5.57;97.14
65756;BME280;52489;47.502;18.940;2022-11-14T02:03:20;99192.37;;;5.59;97.18
65756;BME280;52489;47.502;18.940;2022-11-14T02:04:28;99189.44;;;5.55;97.93
65756;BME280;52489;47.502;18.940;2022-11-14T02:05:33;99170.50;;;5.72;98.42
65756;BME280;52489;47.502;18.940;2022-11-14T02:06:37;99178.47;;;5.82;98.54
65756;BME280;52489;47.502;18.940;2022-11-14T02:07:40;99174.69;;;5.89;98.52
65756;BME280;52489;47.502;18.940;2022-11-14T02:08:44;99176.81;;;5.92;98.84
65756;BME280;52489;47.502;18.940;2022-11-14T02:09:47;99176.88;;;6.09;98.92
65756;BME280;52489;47.502;18.940;2022-11-14T02:10:51;99179.78;;;6.13;98.82
65756;BME280;52489;47.502;18.940;2022-11-14T02:11:54;99178.09;;;6.24;98.46
65756;BME280;52489;47.502;18.940;2022-11-14T02:12:59;99176.84;;;6.26;98.38
65756;BME280;52489;47.502;18.940;2022-11-14T02:14:02;99176.13;;;6.31;98.18
65756;BME280;52489;47.502;18.940;2022-11-14T02:15:06;99180.06;;;6.33;98.40
65756;BME280;52489;47.502;18.940;2022-11-14T02:16:09;99184.06;;;6.41;98.06
65756;BME280;52489;47.502;18.940;2022-11-14T02:17:13;99186.28;;;6.32;97.68
65756;BME280;52489;47.502;18.940;2022-11-14T02:18:35;99187.06;;;6.33;97.76
65756;BME280;52489;47.502;18.940;2022-11-14T02:19:40;99181.25;;;6.43;97.02
65756;BME280;52489;47.502;18.940;2022-11-14T02:20:45;99186.53;;;6.31;97.10
65756;BME280;52489;47.502;18.940;2022-11-14T02:21:48;99184.63;;;6.26;97.78
65756;BME280;52489;47.502;18.940;2022-11-14T02:22:51;99187.03;;;6.28;97.42
65756;BME280;52489;47.502;18.940;2022-11-14T02:23:54;99188.59;;;6.29;97.65
65756;BME280;52489;47.502;18.940;2022-11-14T02:24:57;99184.94;;;6.30;97.77
65756;BME280;52489;47.502;18.940;2022-11-14T02:26:00;99187.72;;;6.23;97.31
65756;BME280;52489;47.502;18.940;2022-11-14T02:27:04;99187.41;;;6.20;97.03
65756;BME280;52489;47.502;18.940;2022-11-14T02:28:08;99191.66;;;6.09;96.04
65756;BME280;52489;47.502;18.940;2022-11-14T02:29:12;99187.63;;;6.18;96.46
65756;BME280;52489;47.502;18.940;2022-11-14T02:30:18;99185.50;;;6.15;96.31
65756;BME280;52489;47.502;18.940;2022-11-14T02:31:21;99180.31;;;6.15;96.32
65756;BME280;52489;47.502;18.940;2022-11-14T02:32:27;99190.78;;;6.03;96.10
65756;BME280;52489;47.502;18.940;2022-11-14T02:33:46;99182.91;;;6.15;96.20
65756;BME280;52489;47.502;18.940;2022-11-14T02:34:49;99178.44;;;6.10;95.52
65756;BME280;52489;47.502;18.940;2022-11-14T02:35:52;99180.94;;;6.05;95.42
65756;BME280;52489;47.502;18.940;2022-11-14T02:36:55;99182.94;;;5.98;96.43
65756;BME280;52489;47.502;18.940;2022-11-14T02:37:59;99181.12;;;5.99;96.27
65756;BME280;52489;47.502;18.940;2022-11-14T02:39:02;99180.03;;;5.95;96.11
65756;BME280;52489;47.502;18.940;2022-11-14T02:40:06;99180.94;;;6.05;96.53
65756;BME280;52489;47.502;18.940;2022-11-14T02:41:09;99176.88;;;6.09;96.99
65756;BME280;52489;47.502;18.940;2022-11-14T02:42:12;99177.00;;;6.03;96.82
65756;BME280;52489;47.502;18.940;2022-11-14T02:43:15;99186.25;;;5.82;96.24
65756;BME280;52489;47.502;18.940;2022-11-14T02:44:18;99183.81;;;5.75;97.86
65756;BME280;52489;47.502;18.940;2022-11-14T02:45:21;99182.41;;;5.84;97.87
65756;BME280;52489;47.502;18.940;2022-11-14T02:46:24;99177.63;;;5.93;96.99
65756;BME280;52489;47.502;18.940;2022-11-14T02:47:28;99180.25;;;5.93;96.79
65756;BME280;52489;47.502;18.940;2022-11-14T02:48:31;99187.13;;;5.87;97.40
65756;BME280;52489;47.502;18.940;2022-11-14T02:49:34;99190.06;;;5.74;97.83
65756;BME280;52489;47.502;18.940;2022-11-14T02:50:37;99191.69;;;5.63;98.11
65756;BME280;52489;47.502;18.940;2022-11-14T02:51:40;99200.59;;;5.67;97.69
65756;BME280;52489;47.502;18.940;2022-11-14T02:52:43;99186.31;;;5.53;97.59
65756;BME280;52489;47.502;18.940;2022-11-14T02:53:46;99185.94;;;5.33;98.54
65756;BME280;52489;47.502;18.940;2022-11-14T02:54:49;99195.13;;;5.52;98.49
65756;BME280;52489;47.502;18.940;2022-11-14T02:55:56;99189.56;;;5.60;97.90
65756;BME280;52489;47.502;18.940;2022-11-14T02:56:59;99189.66;;;5.65;97.56
65756;BME280;52489;47.502;18.940;2022-11-14T02:58:05;99183.56;;;5.77;95.90
65756;BME280;52489;47.502;18.940;2022-11-14T02:59:09;99190.69;;;5.81;95.48
65756;BME280;52489;47.502;18.940;2022-11-14T03:00:12;99190.31;;;5.89;94.88
65756;BME280;52489;47.502;18.940;2022-11-14T03:01:16;99184.84;;;5.91;94.58
65756;BME280;52489;47.502;18.940;2022-11-14T03:02:22;99183.81;;;5.75;94.75
65756;BME280;52489;47.502;18.940;2022-11-14T03:03:25;99188.09;;;5.81;94.89
65756;BME280;52489;47.502;18.940;2022-11-14T03:04:28;99186.34;;;5.87;94.22
65756;BME280;52489;47.502;18.940;2022-11-14T03:05:31;99177.84;;;5.75;94.63
65756;BME280;52489;47.502;18.940;2022-11-14T03:06:37;99189.12;;;5.80;94.74
65756;BME280;52489;47.502;18.940;2022-11-14T03:07:40;99179.00;;;5.67;95.35
65756;BME280;52489;47.502;18.940;2022-11-14T03:08:43;99182.06;;;5.64;95.65
65756;BME280;52489;47.502;18.940;2022-11-14T03:09:46;99182.12;;;5.52;96.07
65756;BME280;52489;47.502;18.940;2022-11-14T03:10:49;99178.06;;;5.56;96.12
65756;BME280;52489;47.502;18.940;2022-11-14T03:11:52;99172.75;;;5.51;96.33
65756;BME280;52489;47.502;18.940;2022-11-14T03:12:56;99184.41;;;5.48;95.87
65756;BME280;52489;47.502;18.940;2022-11-14T03:13:59;99178.59;;;5.58;95.33
65756;BME280;52489;47.502;18.940;2022-11-14T03:15:04;99175.09;;;5.53;95.23
65756;BME280;52489;47.502;18.940;2022-11-14T03:16:10;99173.06;;;5.55;95.08
65756;BME280;52489;47.502;18.940;2022-11-14T03:17:13;99175.22;;;5.58;95.26
65756;BME280;52489;47.502;18.940;2022-11-14T03:18:16;99174.94;;;5.42;96.36
65756;BME280;52489;47.502;18.940;2022-11-14T03:19:19;99179.25;;;5.37;96.18
65756;BME280;52489;47.502;18.940;2022-11-14T03:20:22;99179.97;;;5.20;98.18
65756;BME280;52489;47.502;18.940;2022-11-14T03:21:25;99174.59;;;5.10;98.03
65756;BME280;52489;47.502;18.940;2022-11-14T03:22:28;99176.84;;;5.18;98.13
65756;BME280;52489;47.502;18.940;2022-11-14T03:23:31;99173.47;;;5.18;97.82
65756;BME280;52489;47.502;18.940;2022-11-14T03:24:34;99175.91;;;5.24;97.84
65756;BME280;52489;47.502;18.940;2022-11-14T03:25:37;99170.41;;;5.21;97.54
65756;BME280;52489;47.502;18.940;2022-11-14T03:26:40;99182.06;;;5.35;96.90
65756;BME280;52489;47.502;18.940;2022-11-14T03:27:42;99172.56;;;5.41;95.65
65756;BME280;52489;47.502;18.940;2022-11-14T03:28:46;99172.25;;;5.37;95.58
65756;BME280;52489;47.502;18.940;2022-11-14T03:29:48;99174.38;;;5.40;95.51
65756;BME280;52489;47.502;18.940;2022-11-14T03:30:51;99173.88;;;5.27;95.79
65756;BME280;52489;47.502;18.940;2022-11-14T03:31:54;99175.31;;;5.34;95.89
65756;BME280;52489;47.502;18.940;2022-11-14T03:32:57;99170.13;;;5.34;96.32
65756;BME280;52489;47.502;18.940;2022-11-14T03:34:00;99173.75;;;5.33;96.60
65756;BME280;52489;47.502;18.940;2022-11-14T03:35:03;99168.44;;;5.28;97.50
65756;BME280;52489;47.502;18.940;2022-11-14T03:36:07;99161.44;;;5.29;98.01
65756;BME280;52489;47.502;18.940;2022-11-14T03:37:10;99170.72;;;5.24;97.81
65756;BME280;52489;47.502;18.940;2022-11-14T03:38:14;99168.28;;;5.18;97.88
65756;BME280;52489;47.502;18.940;2022-11-14T03:39:17;99171.41;;;5.20;98.67
65756;BME280;52489;47.502;18.940;2022-11-14T03:40:20;99170.16;;;5.22;99.71
65756;BME280;52489;47.502;18.940;2022-11-14T03:41:23;99168.53;;;5.33;98.68
65756;BME280;52489;47.502;18.940;2022-11-14T03:42:26;99170.69;;;5.36;99.20
65756;BME280;52489;47.502;18.940;2022-11-14T03:43:31;99167.94;;;5.43;98.60
65756;BME280;52489;47.502;18.940;2022-11-14T03:44:34;99167.16;;;5.42;99.59
65756;BME280;52489;47.502;18.940;2022-11-14T03:45:37;99166.31;;;5.54;100.00
65756;BME280;52489;47.502;18.940;2022-11-14T03:46:40;99165.66;;;5.46;99.62
65756;BME280;52489;47.502;18.940;2022-11-14T03:47:47;99173.75;;;5.50;99.11
65756;BME280;52489;47.502;18.940;2022-11-14T03:48:51;99167.16;;;5.42;98.53
65756;BME280;52489;47.502;18.940;2022-11-14T03:49:54;99166.00;;;5.21;98.30
65756;BME280;52489;47.502;18.940;2022-11-14T03:50:57;99173.06;;;5.26;98.42
65756;BME280;52489;47.502;18.940;2022-11-14T03:52:00;99166.12;;;5.15;100.00
65756;BME280;52489;47.502;18.940;2022-11-14T03:53:03;99166.78;;;5.22;100.00
65756;BME280;52489;47.502;18.940;2022-11-14T03:54:06;99164.19;;;5.22;98.85
65756;BME280;52489;47.502;18.940;2022-11-14T03:55:09;99170.75;;;5.13;99.03
65756;BME280;52489;47.502;18.940;2022-11-14T03:56:12;99156.59;;;5.20;99.12
65756;BME280;52489;47.502;18.940;2022-11-14T03:57:15;99158.78;;;5.23;98.52
65756;BME280;52489;47.502;18.940;2022-11-14T03:58:19;99160.28;;;5.36;97.75
65756;BME280;52489;47.502;18.940;2022-11-14T03:59:21;99163.81;;;5.30;98.54
65756;BME280;52489;47.502;18.940;2022-11-14T04:00:24;99163.16;;;5.23;99.01
65756;BME280;52489;47.502;18.940;2022-11-14T04:01:29;99161.59;;;5.22;99.89
65756;BME280;52489;47.502;18.940;2022-11-14T04:02:32;99157.94;;;5.23;100.00
65756;BME280;52489;47.502;18.940;2022-11-14T04:03:34;99153.88;;;5.27;100.00
65756;BME280;52489;47.502;18.940;2022-11-14T04:04:37;99157.03;;;5.29;100.00
65756;BME280;52489;47.502;18.940;2022-11-14T04:05:43;99158.06;;;5.28;100.00
65756;BME280;52489;47.502;18.940;2022-11-14T04:06:46;99156.91;;;5.36;100.00
65756;BME280;52489;47.502;18.940;2022-11-14T04:07:51;99156.03;;;5.30;100.00
65756;BME280;52489;47.502;18.940;2022-11-14T04:08:54;99155.13;;;5.24;100.00
65756;BME280;52489;47.502;18.940;2022-11-14T04:09:58;99152.75;;;5.23;100.00
65756;BME280;52489;47.502;18.940;2022-11-14T04:11:01;99152.19;;;5.33;100.00
65756;BME280;52489;47.502;18.940;2022-11-14T04:12:04;99155.87;;;5.37;100.00
65756;BME280;52489;47.502;18.940;2022-11-14T04:13:12;99144.62;;;5.48;100.00
65756;BME280;52489;47.502;18.940;2022-11-14T04:14:15;99149.84;;;5.48;100.00
65756;BME280;52489;47.502;18.940;2022-11-14T04:15:19;99148.25;;;5.47;100.00
65756;BME280;52489;47.502;18.940;2022-11-14T04:16:22;99152.75;;;5.52;100.00
65756;BME280;52489;47.502;18.940;2022-11-14T04:17:25;99160.56;;;5.52;100.00
65756;BME280;52489;47.502;18.940;2022-11-14T04:18:28;99154.06;;;5.37;100.00
65756;BME280;52489;47.502;18.940;2022-11-14T04:19:32;99154.66;;;5.28;100.00
65756;BME280;52489;47.502;18.940;2022-11-14T04:20:35;99155.13;;;5.24;100.00
65756;BME280;52489;47.502;18.940;2022-11-14T04:21:38;99149.78;;;5.31;100.00
65756;BME280;52489;47.502;18.940;2022-11-14T04:22:41;99156.38;;;5.22;100.00
65756;BME280;52489;47.502;18.940;2022-11-14T04:23:44;99155.69;;;5.27;100.00
65756;BME280;52489;47.502;18.940;2022-11-14T04:24:48;99157.91;;;5.35;100.00
65756;BME280;52489;47.502;18.940;2022-11-14T04:25:50;99164.88;;;5.46;100.00
65756;BME280;52489;47.502;18.940;2022-11-14T04:26:53;99151.31;;;5.44;100.00
65756;BME280;52489;47.502;18.940;2022-11-14T04:27:56;99153.69;;;5.45;100.00
65756;BME280;52489;47.502;18.940;2022-11-14T04:28:59;99153.56;;;5.23;100.00
65756;BME280;52489;47.502;18.940;2022-11-14T04:30:05;99154.03;;;5.09;100.00
65756;BME280;52489;47.502;18.940;2022-11-14T04:31:08;99141.91;;;5.26;100.00
65756;BME280;52489;47.502;18.940;2022-11-14T04:32:11;99149.06;;;5.19;100.00
65756;BME280;52489;47.502;18.940;2022-11-14T04:33:14;99152.25;;;5.38;100.00
65756;BME280;52489;47.502;18.940;2022-11-14T04:34:17;99145.44;;;5.48;99.45
65756;BME280;52489;47.502;18.940;2022-11-14T04:35:19;99151.00;;;5.40;98.21
65756;BME280;52489;47.502;18.940;2022-11-14T04:36:22;99143.50;;;5.27;97.77
65756;BME280;52489;47.502;18.940;2022-11-14T04:37:26;99148.53;;;5.34;97.79
65756;BME280;52489;47.502;18.940;2022-11-14T04:38:30;99147.47;;;5.46;96.94
65756;BME280;52489;47.502;18.940;2022-11-14T04:39:33;99147.75;;;5.33;97.48
65756;BME280;52489;47.502;18.940;2022-11-14T04:40:36;99152.19;;;5.33;97.36
65756;BME280;52489;47.502;18.940;2022-11-14T04:41:39;99137.59;;;5.32;97.52
65756;BME280;52489;47.502;18.940;2022-11-14T04:42:42;99141.78;;;5.33;97.29
65756;BME280;52489;47.502;18.940;2022-11-14T04:43:45;99138.66;;;5.47;95.77
65756;BME280;52489;47.502;18.940;2022-11-14T04:44:52;99135.69;;;5.27;96.58
65756;BME280;52489;47.502;18.940;2022-11-14T04:45:55;99139.78;;;5.23;97.16
65756;BME280;52489;47.502;18.940;2022-11-14T04:46:58;99136.75;;;5.14;96.94
65756;BME280;52489;47.502;18.940;2022-11-14T04:48:01;99133.28;;;5.09;97.87
65756;BME280;52489;47.502;18.940;2022-11-14T04:49:04;99129.56;;;5.05;98.40
65756;BME280;52489;47.502;18.940;2022-11-14T04:50:07;99126.81;;;5.11;98.62
65756;BME280;52489;47.502;18.940;2022-11-14T04:51:10;99132.44;;;5.20;97.76
65756;BME280;52489;47.502;18.940;2022-11-14T04:52:13;99131.91;;;5.18;97.21
65756;BME280;52489;47.502;18.940;2022-11-14T04:53:16;99124.75;;;4.96;97.45
65756;BME280;52489;47.502;18.940;2022-11-14T04:54:22;99127.78;;;4.93;98.32
65756;BME280;52489;47.502;18.940;2022-11-14T04:55:25;99127.13;;;4.98;98.72
65756;BME280;52489;47.502;18.940;2022-11-14T04:56:28;99120.91;;;4.99;99.87
65756;BME280;52489;47.502;18.940;2022-11-14T04:57:31;99116.06;;;4.91;100.00
65756;BME280;52489;47.502;18.940;2022-11-14T04:58:34;99115.84;;;4.92;100.00
65756;BME280;52489;47.502;18.940;2022-11-14T04:59:37;99117.97;;;4.95;100.00
65756;BME280;52489;47.502;18.940;2022-11-14T05:00:40;99116.87;;;4.91;100.00
65756;BME280;52489;47.502;18.940;2022-11-14T05:01:43;99117.09;;;4.90;100.00
65756;BME280;52489;47.502;18.940;2022-11-14T05:02:46;99111.44;;;4.93;100.00
65756;BME280;52489;47.502;18.940;2022-11-14T05:03:52;99112.50;;;5.09;100.00
65756;BME280;52489;47.502;18.940;2022-11-14T05:04:55;99107.19;;;5.15;100.00
65756;BME280;52489;47.502;18.940;2022-11-14T05:06:02;99112.59;;;5.14;100.00
65756;BME280;52489;47.502;18.940;2022-11-14T05:07:05;99111.03;;;5.13;100.00
65756;BME280;52489;47.502;18.940;2022-11-14T05:08:08;99108.38;;;5.24;100.00
65756;BME280;52489;47.502;18.940;2022-11-14T05:09:11;99102.56;;;5.34;100.00
65756;BME280;52489;47.502;18.940;2022-11-14T05:10:14;99097.31;;;5.46;100.00
65756;BME280;52489;47.502;18.940;2022-11-14T05:11:18;99101.16;;;5.43;100.00
65756;BME280;52489;47.502;18.940;2022-11-14T05:12:27;99103.59;;;5.50;100.00
65756;BME280;52489;47.502;18.940;2022-11-14T05:13:30;99099.91;;;5.63;100.00
65756;BME280;52489;47.502;18.940;2022-11-14T05:14:33;99097.78;;;5.60;100.00
65756;BME280;52489;47.502;18.940;2022-11-14T05:15:36;99089.44;;;5.58;100.00
65756;BME280;52489;47.502;18.940;2022-11-14T05:16:39;99088.75;;;5.62;100.00
65756;BME280;52489;47.502;18.940;2022-11-14T05:17:42;99089.19;;;5.76;100.00
65756;BME280;52489;47.502;18.940;2022-11-14T05:18:45;99090.31;;;5.80;100.00
65756;BME280;52489;47.502;18.940;2022-11-14T05:19:49;99089.19;;;5.76;100.00
65756;BME280;52489;47.502;18.940;2022-11-14T05:20:52;99095.56;;;5.85;100.00
65756;BME280;52489;47.502;18.940;2022-11-14T05:21:55;99088.72;;;5.79;100.00
65756;BME280;52489;47.502;18.940;2022-11-14T05:22:58;99083.28;;;5.81;100.00
65756;BME280;52489;47.502;18.940;2022-11-14T05:24:01;99083.69;;;5.89;100.00
65756;BME280;52489;47.502;18.940;2022-11-14T05:25:05;99083.44;;;5.91;100.00
65756;BME280;52489;47.502;18.940;2022-11-14T05:26:13;99090.31;;;5.97;100.00
65756;BME280;52489;47.502;18.940;2022-11-14T05:27:16;99095.38;;;6.04;100.00
65756;BME280;52489;47.502;18.940;2022-11-14T05:28:19;99091.12;;;5.98;100.00
65756;BME280;52489;47.502;18.940;2022-11-14T05:29:22;99096.63;;;6.01;100.00
65756;BME280;52489;47.502;18.940;2022-11-14T05:30:25;99092.19;;;6.02;100.00
65756;BME280;52489;47.502;18.940;2022-11-14T05:31:28;99091.16;;;6.03;100.00
65756;BME280;52489;47.502;18.940;2022-11-14T05:32:31;99101.25;;;5.99;100.00
65756;BME280;52489;47.502;18.940;2022-11-14T05:33:34;99098.59;;;5.94;100.00
65756;BME280;52489;47.502;18.940;2022-11-14T05:34:37;99100.47;;;5.99;100.00
65756;BME280;52489;47.502;18.940;2022-11-14T05:35:40;99100.97;;;5.96;100.00
65756;BME280;52489;47.502;18.940;2022-11-14T05:36:43;99095.50;;;5.97;100.00
65756;BME280;52489;47.502;18.940;2022-11-14T05:37:46;99095.59;;;6.02;100.00
65756;BME280;52489;47.502;18.940;2022-11-14T05:38:48;99101.63;;;5.91;100.00
65756;BME280;52489;47.502;18.940;2022-11-14T05:39:51;99099.22;;;6.01;100.00